createdAt,value
2023-04-07T00:02:14.824Z,101379.75
2023-04-07T00:04:42.972Z,101378.09
2023-04-07T00:07:10.643Z,101379.78
2023-04-07T00:09:38.203Z,101369.34
2023-04-07T00:12:05.776Z,101377.00
2023-04-07T00:14:33.348Z,101369.06
2023-04-07T00:17:02.105Z,101369.25
2023-04-07T00:19:30.257Z,101374.19
2023-04-07T00:21:57.718Z,101373.91
2023-04-07T00:24:34.295Z,101372.50
2023-04-07T00:27:02.682Z,101376.88
2023-04-07T00:29:30.113Z,101377.72
2023-04-07T00:31:57.509Z,101379.25
2023-04-07T00:34:25.021Z,101379.25
2023-04-07T00:36:52.518Z,101382.13
2023-04-07T00:39:20.760Z,101380.03
2023-04-07T00:41:48.734Z,101382.69
2023-04-07T00:44:16.227Z,101385.38
2023-04-07T00:46:44.057Z,101389.88
2023-04-07T00:49:13.420Z,101383.13
2023-04-07T00:51:41.500Z,101378.19
2023-04-07T00:54:10.445Z,101380.59
2023-04-07T00:56:38.941Z,101379.59
2023-04-07T00:59:06.733Z,101381.00
2023-04-07T01:01:46.293Z,101376.50
2023-04-07T01:04:30.489Z,101378.19
2023-04-07T01:07:05.626Z,101379.56
2023-04-07T01:09:57.988Z,101375.81
2023-04-07T01:12:36.626Z,101373.41
2023-04-07T01:15:12.941Z,101376.50
2023-04-07T01:17:46.032Z,101370.72
2023-04-07T01:20:17.708Z,101381.84
2023-04-07T01:22:54.369Z,101369.19
2023-04-07T01:25:35.717Z,101373.38
2023-04-07T01:28:32.115Z,101369.72
2023-04-07T01:31:01.785Z,101371.84
2023-04-07T01:33:32.848Z,101378.19
2023-04-07T01:36:01.879Z,101372.97
2023-04-07T01:38:30.275Z,101371.31
2023-04-07T01:40:59.345Z,101369.47
2023-04-07T01:43:28.589Z,101363.84
2023-04-07T01:45:58.307Z,101367.06
2023-04-07T01:48:27.349Z,101364.09
2023-04-07T01:50:57.161Z,101364.09
2023-04-07T01:53:26.342Z,101360.09
2023-04-07T01:55:54.846Z,101368.31
2023-04-07T01:58:26.051Z,101364.09
2023-04-07T02:00:53.618Z,101365.22
2023-04-07T02:03:32.272Z,101363.25
2023-04-07T02:06:07.120Z,101359.47
2023-04-07T02:08:45.084Z,101361.56
2023-04-07T02:11:13.400Z,101352.25
2023-04-07T02:13:43.672Z,101360.69
2023-04-07T02:16:12.572Z,101357.31
2023-04-07T02:18:43.328Z,101349.72
2023-04-07T02:21:13.047Z,101361.53
2023-04-07T02:23:40.443Z,101353.38
2023-04-07T02:26:07.905Z,101351.78
2023-04-07T02:28:35.550Z,101355.59
2023-04-07T02:31:02.984Z,101347.56
2023-04-07T02:33:31.938Z,101353.00
2023-04-07T02:35:59.385Z,101351.06
2023-04-07T02:38:26.756Z,101348.38
2023-04-07T02:40:54.338Z,101347.31
2023-04-07T02:43:25.562Z,101353.16
2023-04-07T02:45:53.214Z,101351.31
2023-04-07T02:48:21.474Z,101348.25
2023-04-07T02:50:48.819Z,101354.19
2023-04-07T02:53:19.884Z,101356.41
2023-04-07T02:55:47.335Z,101354.38
2023-04-07T02:58:14.985Z,101363.56
2023-04-07T03:00:43.445Z,101372.13
2023-04-07T03:03:11.524Z,101365.38
2023-04-07T03:05:39.545Z,101373.78
2023-04-07T03:08:06.989Z,101373.19
2023-04-07T03:10:34.508Z,101368.41
2023-04-07T03:13:02.653Z,101374.63
2023-04-07T03:15:30.146Z,101369.19
2023-04-07T03:17:58.580Z,101377.91
2023-04-07T03:20:26.436Z,101370.44
2023-04-07T03:23:00.067Z,101375.94
2023-04-07T03:25:27.719Z,101380.31
2023-04-07T03:27:55.639Z,101375.38
2023-04-07T03:30:23.212Z,101371.50
2023-04-07T03:32:50.778Z,101382.56
2023-04-07T03:35:18.263Z,101376.94
2023-04-07T03:37:46.262Z,101372.56
2023-04-07T03:40:13.918Z,101384.25
2023-04-07T03:42:43.618Z,101377.53
2023-04-07T03:45:11.452Z,101376.56
2023-04-07T03:47:39.244Z,101382.38
2023-04-07T03:50:07.497Z,101384.25
2023-04-07T03:52:35.065Z,101382.97
2023-04-07T03:55:02.491Z,101382.38
2023-04-07T03:57:30.186Z,101387.91
2023-04-07T03:59:59.323Z,101384.09
2023-04-07T04:02:26.893Z,101381.53
2023-04-07T04:04:54.464Z,101379.88
2023-04-07T04:07:22.865Z,101383.69
2023-04-07T04:09:51.206Z,101387.91
2023-04-07T04:12:18.632Z,101385.88
2023-04-07T04:14:46.002Z,101381.88
2023-04-07T04:17:13.406Z,101387.78
2023-04-07T04:19:40.968Z,101391.84
2023-04-07T04:22:08.326Z,101391.38
2023-04-07T04:24:36.491Z,101402.78
2023-04-07T04:27:04.089Z,101404.25
2023-04-07T04:29:32.970Z,101399.28
2023-04-07T04:32:00.739Z,101403.66
2023-04-07T04:34:37.036Z,101401.09
2023-04-07T04:37:04.710Z,101408.94
2023-04-07T04:39:32.706Z,101409.50
2023-04-07T04:42:03.853Z,101411.19
2023-04-07T04:44:32.039Z,101401.88
2023-04-07T04:47:04.939Z,101410.84
2023-04-07T04:49:33.131Z,101403.75
2023-04-07T04:52:00.580Z,101406.16
2023-04-07T04:54:30.690Z,101404.25
2023-04-07T04:56:58.167Z,101403.16
2023-04-07T04:59:27.054Z,101412.38
2023-04-07T05:01:54.517Z,101411.50
2023-04-07T05:04:22.232Z,101409.06
2023-04-07T05:06:49.734Z,101412.06
2023-04-07T05:09:19.927Z,101412.88
2023-04-07T05:11:48.001Z,101406.09
2023-04-07T05:14:15.880Z,101410.31
2023-04-07T05:16:47.675Z,101412.69
2023-04-07T05:19:15.515Z,101417.53
2023-04-07T05:21:42.934Z,101425.75
2023-04-07T05:24:14.150Z,101430.91
2023-04-07T05:26:42.102Z,101421.50
2023-04-07T05:29:09.472Z,101416.84
2023-04-07T05:31:37.732Z,101417.44
2023-04-07T05:34:05.132Z,101418.88
2023-04-07T05:36:34.085Z,101426.63
2023-04-07T05:39:01.827Z,101418.88
2023-04-07T05:41:29.476Z,101420.97
2023-04-07T05:44:01.335Z,101419.44
2023-04-07T05:46:29.672Z,101421.53
2023-04-07T05:48:59.085Z,101420.38
2023-04-07T05:51:28.418Z,101416.03
2023-04-07T05:53:56.066Z,101421.44
2023-04-07T05:56:24.346Z,101422.22
2023-04-07T05:58:52.351Z,101415.63
2023-04-07T06:01:21.528Z,101430.34
2023-04-07T06:03:49.180Z,101426.06
2023-04-07T06:06:16.881Z,101430.09
2023-04-07T06:08:46.127Z,101425.13
2023-04-07T06:11:14.378Z,101430.09
2023-04-07T06:13:42.175Z,101431.34
2023-04-07T06:16:09.781Z,101427.41
2023-04-07T06:18:41.513Z,101426.66
2023-04-07T06:21:09.374Z,101433.56
2023-04-07T06:23:37.865Z,101433.38
2023-04-07T06:26:05.441Z,101436.16
2023-04-07T06:28:32.982Z,101429.22
2023-04-07T06:31:00.472Z,101432.47
2023-04-07T06:33:29.334Z,101439.56
2023-04-07T06:35:56.788Z,101446.22
2023-04-07T06:38:24.688Z,101440.38
2023-04-07T06:40:52.174Z,101441.72
2023-04-07T06:43:23.955Z,101453.00
2023-04-07T06:45:51.488Z,101456.09
2023-04-07T06:48:18.911Z,101453.38
2023-04-07T06:50:52.994Z,101452.84
2023-04-07T06:53:21.064Z,101460.28
2023-04-07T06:55:49.356Z,101455.31
2023-04-07T06:58:16.856Z,101460.34
2023-04-07T07:00:44.332Z,101452.09
2023-04-07T07:03:12.391Z,101456.50
2023-04-07T07:05:40.056Z,101458.19
2023-04-07T07:08:07.722Z,101457.13
2023-04-07T07:10:35.321Z,101458.44
2023-04-07T07:13:03.236Z,101458.34
2023-04-07T07:15:31.437Z,101463.00
2023-04-07T07:17:58.890Z,101452.69
2023-04-07T07:20:26.566Z,101459.19
2023-04-07T07:22:53.973Z,101466.03
2023-04-07T07:25:21.471Z,101459.44
2023-04-07T07:27:53.359Z,101463.19
2023-04-07T07:30:25.095Z,101460.31
2023-04-07T07:32:55.806Z,101458.19
2023-04-07T07:35:25.296Z,101462.28
2023-04-07T07:37:54.405Z,101452.13
2023-04-07T07:40:22.158Z,101452.38
2023-04-07T07:42:51.294Z,101454.06
2023-04-07T07:45:19.770Z,101455.47
2023-04-07T07:47:57.691Z,101452.78
2023-04-07T07:50:25.401Z,101449.31
2023-04-07T07:52:52.896Z,101451.69
2023-04-07T07:55:23.115Z,101451.88
2023-04-07T07:57:50.552Z,101454.72
2023-04-07T08:00:18.065Z,101457.50
2023-04-07T08:03:00.704Z,101454.78
2023-04-07T08:05:29.001Z,101455.47
2023-04-07T08:07:56.377Z,101456.16
2023-04-07T08:10:25.266Z,101462.06
2023-04-07T08:12:58.611Z,101452.94
2023-04-07T08:15:26.731Z,101453.63
2023-04-07T08:17:55.509Z,101449.53
2023-04-07T08:20:27.472Z,101450.03
2023-04-07T08:22:56.093Z,101451.91
2023-04-07T08:25:26.214Z,101454.25
2023-04-07T08:27:56.629Z,101446.41
2023-04-07T08:30:24.781Z,101442.66
2023-04-07T08:33:08.986Z,101450.72
2023-04-07T08:35:36.559Z,101447.84
2023-04-07T08:38:04.101Z,101446.50
2023-04-07T08:40:32.835Z,101444.50
2023-04-07T08:43:04.305Z,101447.44
2023-04-07T08:45:34.103Z,101453.22
2023-04-07T08:48:08.033Z,101453.91
2023-04-07T08:50:36.260Z,101450.88
2023-04-07T08:53:09.656Z,101456.56
2023-04-07T08:55:37.205Z,101450.22
2023-04-07T08:58:05.454Z,101452.44
2023-04-07T09:00:33.090Z,101458.97
2023-04-07T09:03:23.365Z,101461.28
2023-04-07T09:05:51.729Z,101467.72
2023-04-07T09:08:19.167Z,101462.97
2023-04-07T09:10:46.775Z,101463.16
2023-04-07T09:13:14.579Z,101456.25
2023-04-07T09:15:42.401Z,101450.47
2023-04-07T09:18:09.967Z,101450.94
2023-04-07T09:21:11.773Z,101451.88
2023-04-07T09:23:41.460Z,101450.97
2023-04-07T09:26:28.520Z,101454.56
2023-04-07T09:29:01.476Z,101450.22
2023-04-07T09:31:45.077Z,101445.00
2023-04-07T09:34:26.620Z,101440.53
2023-04-07T09:36:55.255Z,101437.75
2023-04-07T09:39:23.009Z,101439.84
2023-04-07T09:41:51.425Z,101437.88
2023-04-07T09:44:22.476Z,101447.47
2023-04-07T09:46:55.664Z,101446.31
2023-04-07T09:49:26.770Z,101451.91
2023-04-07T09:52:07.789Z,101447.13
2023-04-07T09:54:41.426Z,101445.59
2023-04-07T09:57:12.686Z,101450.47
2023-04-07T09:59:42.726Z,101442.31
2023-04-07T10:02:11.081Z,101441.81
2023-04-07T10:04:41.010Z,101448.75
2023-04-07T10:07:08.403Z,101438.31
2023-04-07T10:09:36.800Z,101441.53
2023-04-07T10:12:05.964Z,101446.91
2023-04-07T10:14:35.796Z,101448.69
2023-04-07T10:17:04.186Z,101445.31
2023-04-07T10:19:35.831Z,101453.06
2023-04-07T10:22:06.404Z,101443.06
2023-04-07T10:24:51.030Z,101445.44
2023-04-07T10:27:24.492Z,101444.41
2023-04-07T10:29:53.165Z,101444.09
2023-04-07T10:32:20.689Z,101442.28
2023-04-07T10:34:51.499Z,101453.63
2023-04-07T10:37:21.410Z,101445.72
2023-04-07T10:39:51.410Z,101448.59
2023-04-07T10:42:41.007Z,101452.97
2023-04-07T10:45:10.615Z,101454.47
2023-04-07T10:48:01.444Z,101460.03
2023-04-07T10:50:29.673Z,101459.19
2023-04-07T10:53:08.381Z,101459.50
2023-04-07T10:55:41.636Z,101453.44
2023-04-07T10:58:29.984Z,101458.53
2023-04-07T11:01:03.893Z,101453.28
2023-04-07T11:03:34.891Z,101446.75
2023-04-07T11:06:09.655Z,101441.16
2023-04-07T11:08:37.962Z,101440.66
2023-04-07T11:11:13.864Z,101436.78
2023-04-07T11:13:59.273Z,101432.75
2023-04-07T11:16:42.882Z,101432.22
2023-04-07T11:19:12.289Z,101425.31
2023-04-07T11:21:40.385Z,101430.03
2023-04-07T11:24:07.953Z,101427.63
2023-04-07T11:26:42.422Z,101418.75
2023-04-07T11:29:11.875Z,101414.38
2023-04-07T11:31:40.178Z,101411.53
2023-04-07T11:34:09.162Z,101417.75
2023-04-07T11:36:42.115Z,101411.56
2023-04-07T11:39:21.602Z,101409.63
2023-04-07T11:41:51.235Z,101410.19
2023-04-07T11:44:19.838Z,101400.22
2023-04-07T11:46:58.743Z,101398.69
2023-04-07T11:49:28.776Z,101392.97
2023-04-07T11:52:07.603Z,101403.38
2023-04-07T11:54:48.223Z,101399.38
2023-04-07T11:57:28.231Z,101393.13
2023-04-07T12:00:26.060Z,101394.97
2023-04-07T12:02:54.674Z,101392.81
2023-04-07T12:05:22.551Z,101396.47
2023-04-07T12:07:55.686Z,101396.47
2023-04-07T12:10:35.261Z,101392.63
2023-04-07T12:13:04.505Z,101392.41
2023-04-07T12:15:32.251Z,101391.56
2023-04-07T12:17:59.889Z,101391.22
2023-04-07T12:20:27.825Z,101393.72
2023-04-07T12:25:36.995Z,101377.00
2023-04-07T12:28:10.723Z,101375.44
2023-04-07T12:30:39.366Z,101372.03
2023-04-07T12:33:07.272Z,101372.31
2023-04-07T12:35:35.520Z,101375.88
2023-04-07T12:38:03.235Z,101367.75
2023-04-07T12:40:35.215Z,101364.44
2023-04-07T12:43:03.785Z,101358.00
2023-04-07T12:45:32.025Z,101355.25
2023-04-07T12:47:59.871Z,101359.91
2023-04-07T12:50:27.512Z,101362.53
2023-04-07T12:52:55.917Z,101361.09
2023-04-07T12:55:23.692Z,101360.88
2023-04-07T12:57:51.133Z,101369.28
2023-04-07T13:00:19.161Z,101364.97
2023-04-07T13:03:07.488Z,101361.72
2023-04-07T13:05:35.756Z,101367.53
2023-04-07T13:08:04.828Z,101368.94
2023-04-07T13:10:32.544Z,101368.44
2023-04-07T13:13:04.958Z,101368.09
2023-04-07T13:15:32.965Z,101365.72
2023-04-07T13:18:00.957Z,101361.50
2023-04-07T13:20:33.829Z,101370.28
2023-04-07T13:23:08.289Z,101358.50
2023-04-07T13:25:37.922Z,101369.00
2023-04-07T13:28:06.696Z,101355.53
2023-04-07T13:30:34.734Z,101356.38
2023-04-07T13:33:02.961Z,101363.25
2023-04-07T13:35:33.832Z,101366.63
2023-04-07T13:38:03.428Z,101362.69
2023-04-07T13:40:31.468Z,101368.13
2023-04-07T13:43:00.655Z,101362.28
2023-04-07T13:45:28.053Z,101367.25
2023-04-07T13:47:56.788Z,101362.38
2023-04-07T13:50:25.358Z,101362.28
2023-04-07T13:52:52.941Z,101355.81
2023-04-07T13:55:20.917Z,101357.81
2023-04-07T13:57:48.814Z,101349.16
2023-04-07T14:00:17.338Z,101361.41
2023-04-07T14:03:04.821Z,101351.88
2023-04-07T14:05:32.501Z,101358.31
2023-04-07T14:08:00.010Z,101361.78
2023-04-07T14:10:27.899Z,101357.34
2023-04-07T14:12:55.327Z,101359.38
2023-04-07T14:15:22.830Z,101353.47
2023-04-07T14:17:53.177Z,101354.31
2023-04-07T14:20:21.188Z,101356.81
2023-04-07T14:22:49.487Z,101359.38
2023-04-07T14:25:16.946Z,101360.56
2023-04-07T14:27:46.002Z,101361.28
2023-04-07T14:30:13.612Z,101363.84
2023-04-07T14:32:41.193Z,101365.03
2023-04-07T14:35:09.033Z,101358.63
2023-04-07T14:37:36.902Z,101360.63
2023-04-07T14:40:06.398Z,101361.47
2023-04-07T14:42:33.973Z,101362.84
2023-04-07T14:45:01.964Z,101363.03
2023-04-07T14:47:29.719Z,101362.56
2023-04-07T14:49:57.533Z,101349.38
2023-04-07T14:52:26.167Z,101357.66
2023-04-07T14:54:54.068Z,101356.66
2023-04-07T14:57:22.463Z,101358.41
2023-04-07T14:59:50.130Z,101363.75
2023-04-07T15:02:17.669Z,101359.75
2023-04-07T15:04:45.477Z,101359.59
2023-04-07T15:07:13.770Z,101370.50
2023-04-07T15:09:41.420Z,101364.47
2023-04-07T15:12:09.026Z,101365.94
2023-04-07T15:14:36.683Z,101361.78
2023-04-07T15:17:04.096Z,101361.59
2023-04-07T15:19:32.076Z,101372.38
2023-04-07T15:22:06.862Z,101364.09
2023-04-07T15:24:36.078Z,101360.59
2023-04-07T15:27:03.990Z,101361.84
2023-04-07T15:29:32.742Z,101358.66
2023-04-07T15:32:00.655Z,101357.13
2023-04-07T15:34:28.583Z,101356.22
2023-04-07T15:36:57.367Z,101363.47
2023-04-07T15:39:24.839Z,101355.22
2023-04-07T15:41:52.296Z,101357.47
2023-04-07T15:44:20.024Z,101363.03
2023-04-07T15:46:48.307Z,101356.81
2023-04-07T15:49:20.297Z,101358.50
2023-04-07T15:51:49.337Z,101361.53
2023-04-07T15:54:16.769Z,101356.63
2023-04-07T15:56:44.196Z,101358.47
2023-04-07T15:59:11.613Z,101366.91
2023-04-07T16:01:39.209Z,101373.31
2023-04-07T16:04:08.016Z,101369.28
2023-04-07T16:06:35.606Z,101370.59
2023-04-07T16:09:04.379Z,101368.25
2023-04-07T16:11:32.788Z,101373.66
2023-04-07T16:14:00.517Z,101366.91
2023-04-07T16:16:31.067Z,101373.31
2023-04-07T16:18:59.430Z,101374.50
2023-04-07T16:21:27.474Z,101367.59
2023-04-07T16:23:56.141Z,101376.69
2023-04-07T16:26:23.703Z,101380.06
2023-04-07T16:28:51.090Z,101373.06
2023-04-07T16:31:21.144Z,101387.03
2023-04-07T16:33:51.034Z,101389.53
2023-04-07T16:36:18.517Z,101389.53
2023-04-07T16:38:46.738Z,101414.53
2023-04-07T16:41:14.218Z,101422.59
2023-04-07T16:43:42.489Z,101418.56
2023-04-07T16:46:10.133Z,101422.59
2023-04-07T16:48:37.600Z,101416.03
2023-04-07T16:51:06.503Z,101422.91
2023-04-07T16:53:34.319Z,101419.91
2023-04-07T16:56:04.510Z,101434.88
2023-04-07T16:58:32.092Z,101432.34
2023-04-07T17:00:59.504Z,101436.56
2023-04-07T17:03:31.702Z,101423.28
2023-04-07T17:06:05.437Z,101434.25
2023-04-07T17:08:39.023Z,101435.09
2023-04-07T17:11:09.681Z,101430.88
2023-04-07T17:13:37.753Z,101436.78
2023-04-07T17:16:13.537Z,101436.13
2023-04-07T17:18:41.377Z,101438.16
2023-04-07T17:21:09.147Z,101436.97
2023-04-07T17:23:42.633Z,101438.13
2023-04-07T17:26:10.881Z,101433.28
2023-04-07T17:28:38.366Z,101431.09
2023-04-07T17:31:06.095Z,101436.81
2023-04-07T17:33:35.248Z,101436.81
2023-04-07T17:36:03.272Z,101437.66
2023-04-07T17:38:32.056Z,101438.66
2023-04-07T17:41:01.925Z,101440.50
2023-04-07T17:43:29.858Z,101443.53
2023-04-07T17:45:57.310Z,101440.16
2023-04-07T17:48:25.170Z,101447.41
2023-04-07T17:50:52.847Z,101437.97
2023-04-07T17:53:20.774Z,101438.47
2023-04-07T17:55:49.664Z,101438.81
2023-04-07T17:58:21.096Z,101443.38
2023-04-07T18:00:48.829Z,101444.16
2023-04-07T18:03:19.467Z,101440.28
2023-04-07T18:05:47.906Z,101444.56
2023-04-07T18:08:15.414Z,101447.19
2023-04-07T18:10:43.402Z,101448.19
2023-04-07T18:13:11.207Z,101454.53
2023-04-07T18:15:38.906Z,101453.91
2023-04-07T18:18:06.701Z,101456.91
2023-04-07T18:20:36.255Z,101451.53
2023-04-07T18:23:03.871Z,101457.94
2023-04-07T18:25:31.800Z,101454.91
2023-04-07T18:27:59.364Z,101455.25
2023-04-07T18:30:27.395Z,101460.66
2023-04-07T18:32:55.414Z,101456.75
2023-04-07T18:35:23.088Z,101455.41
2023-04-07T18:37:50.726Z,101458.47
2023-04-07T18:40:18.326Z,101457.94
2023-04-07T18:42:45.836Z,101457.06
2023-04-07T18:45:13.465Z,101451.88
2023-04-07T18:47:41.150Z,101447.84
2023-04-07T18:50:09.008Z,101452.25
2023-04-07T18:52:36.618Z,101445.34
2023-04-07T18:55:04.961Z,101450.56
2023-04-07T18:57:32.965Z,101445.50
2023-04-07T19:00:00.363Z,101439.78
2023-04-07T19:02:28.179Z,101433.38
2023-04-07T19:04:56.163Z,101433.72
2023-04-07T19:07:23.677Z,101443.28
2023-04-07T19:09:53.953Z,101438.03
2023-04-07T19:12:22.395Z,101451.28
2023-04-07T19:14:53.075Z,101454.00
2023-04-07T19:17:21.094Z,101461.03
2023-04-07T19:19:48.841Z,101470.78
2023-04-07T19:22:17.775Z,101462.97
2023-04-07T19:24:45.191Z,101471.38
2023-04-07T19:27:14.171Z,101470.84
2023-04-07T19:29:41.748Z,101478.09
2023-04-07T19:32:09.975Z,101480.94
2023-04-07T19:34:37.345Z,101480.44
2023-04-07T19:37:05.202Z,101473.41
2023-04-07T19:39:32.757Z,101478.81
2023-04-07T19:42:01.262Z,101480.31
2023-04-07T19:44:29.371Z,101478.81
2023-04-07T19:46:57.424Z,101474.94
2023-04-07T19:49:25.430Z,101484.34
2023-04-07T19:51:54.309Z,101481.50
2023-04-07T19:54:22.812Z,101477.16
2023-04-07T19:56:50.498Z,101482.84
2023-04-07T19:59:18.027Z,101477.16
2023-04-07T20:01:46.454Z,101480.53
2023-04-07T20:04:14.124Z,101475.31
2023-04-07T20:06:41.572Z,101483.91
2023-04-07T20:09:09.035Z,101474.81
2023-04-07T20:11:36.438Z,101474.28
2023-04-07T20:14:04.487Z,101474.41
2023-04-07T20:16:32.579Z,101482.66
2023-04-07T20:19:00.402Z,101478.75
2023-04-07T20:21:28.496Z,101473.38
2023-04-07T20:23:55.893Z,101472.38
2023-04-07T20:26:23.366Z,101472.22
2023-04-07T20:28:51.220Z,101468.16
2023-04-07T20:31:19.522Z,101465.59
2023-04-07T20:33:47.611Z,101462.25
2023-04-07T20:36:15.006Z,101460.44
2023-04-07T20:38:44.027Z,101458.25
2023-04-07T20:41:13.282Z,101458.56
2023-04-07T20:43:41.188Z,101448.66
2023-04-07T20:46:12.611Z,101448.00
2023-04-07T20:48:40.346Z,101439.22
2023-04-07T20:51:07.715Z,101433.31
2023-04-07T20:53:36.542Z,101441.91
2023-04-07T20:56:05.083Z,101434.00
2023-04-07T20:58:32.742Z,101434.31
2023-04-07T21:01:01.106Z,101436.19
2023-04-07T21:03:30.933Z,101430.78
2023-04-07T21:05:59.113Z,101429.41
2023-04-07T21:08:30.722Z,101431.25
2023-04-07T21:10:58.687Z,101432.81
2023-04-07T21:13:27.345Z,101431.97
2023-04-07T21:15:57.307Z,101435.69
2023-04-07T21:18:27.275Z,101435.19
2023-04-07T21:20:57.460Z,101440.78
2023-04-07T21:23:24.978Z,101458.56
2023-04-07T21:25:52.405Z,101449.50
2023-04-07T21:28:19.798Z,101456.56
2023-04-07T21:30:47.547Z,101463.13
2023-04-07T21:33:15.677Z,101445.75
2023-04-07T21:35:43.037Z,101451.50
2023-04-07T21:38:10.646Z,101448.22
2023-04-07T21:40:38.008Z,101450.81
2023-04-07T21:43:05.441Z,101457.41
2023-04-07T21:45:34.242Z,101462.63
2023-04-07T21:48:02.463Z,101454.19
2023-04-07T21:50:30.424Z,101446.94
2023-04-07T21:52:57.758Z,101454.19
2023-04-07T21:55:25.330Z,101455.88
2023-04-07T21:57:55.398Z,101451.13
2023-04-07T22:00:22.913Z,101459.41
2023-04-07T22:02:58.556Z,101463.09
2023-04-07T22:05:26.572Z,101457.34
2023-04-07T22:07:54.213Z,101457.34
2023-04-07T22:10:21.800Z,101458.56
2023-04-07T22:12:50.011Z,101467.63
2023-04-07T22:15:17.849Z,101460.41
2023-04-07T22:17:45.306Z,101459.88
2023-04-07T22:20:12.972Z,101466.63
2023-04-07T22:22:41.338Z,101462.28
2023-04-07T22:25:09.096Z,101464.63
2023-04-07T22:27:36.616Z,101460.03
2023-04-07T22:30:04.384Z,101460.56
2023-04-07T22:32:35.415Z,101460.50
2023-04-07T22:35:03.583Z,101458.50
2023-04-07T22:37:31.251Z,101453.81
2023-04-07T22:39:58.878Z,101458.66
2023-04-07T22:42:26.324Z,101450.44
2023-04-07T22:44:55.520Z,101452.50
2023-04-07T22:47:23.753Z,101444.69
2023-04-07T22:49:51.494Z,101445.84
2023-04-07T22:52:19.304Z,101448.69
2023-04-07T22:54:46.784Z,101443.16
2023-04-07T22:57:15.488Z,101443.97
2023-04-07T22:59:42.860Z,101445.16
2023-04-07T23:02:13.120Z,101442.75
2023-04-07T23:04:41.294Z,101447.91
2023-04-07T23:07:08.739Z,101443.91
2023-04-07T23:09:36.312Z,101446.44
2023-04-07T23:12:08.889Z,101439.38
2023-04-07T23:14:36.301Z,101444.94
2023-04-07T23:17:03.757Z,101450.31
2023-04-07T23:19:31.666Z,101446.94
2023-04-07T23:21:59.090Z,101445.16
2023-04-07T23:24:26.904Z,101449.16
2023-04-07T23:26:54.306Z,101444.94
2023-04-07T23:29:27.758Z,101441.28
2023-04-07T23:31:55.664Z,101435.75
2023-04-07T23:34:23.145Z,101439.63
2023-04-07T23:36:51.789Z,101433.03
2023-04-07T23:39:19.242Z,101432.66
2023-04-07T23:41:46.856Z,101433.19
2023-04-07T23:44:14.261Z,101438.78
2023-04-07T23:46:42.022Z,101435.56
2023-04-07T23:49:09.397Z,101434.88
2023-04-07T23:51:36.763Z,101436.72
2023-04-07T23:54:24.127Z,101436.91
2023-04-07T23:56:51.543Z,101431.53
2023-04-07T23:59:19.272Z,101438.78
